Time,TemperatureF,DewpointF,PressureIn,WindDirection,WindDirectionDegrees,WindSpeedMPH,WindSpeedGustMPH,Humidity,HourlyPrecipIn,Conditions,Clouds,dailyrainin,SoftwareType,DateUTC
2013-01-28 00:21:00,47.0,44.0,30.00,North,0,0.0,-999.0,89,0.00,,,-99.99,,2013-01-28 08:21:00,
2013-01-28 00:32:00,47.0,44.0,30.00,North,0,0.0,-999.0,89,0.00,,,-99.99,,2013-01-28 08:32:00,
2013-01-28 00:42:00,47.0,44.0,30.00,North,0,0.0,-999.0,89,0.00,,,-99.99,,2013-01-28 08:42:00,
2013-01-28 00:52:00,47.0,44.0,30.00,North,0,0.0,-999.0,89,0.00,,,-99.99,,2013-01-28 08:52:00,
2013-01-28 01:21:00,50.0,45.0,30.00,WNW,300,5.0,-999.0,82,0.00,,,-99.99,,2013-01-28 09:21:00,
2013-01-28 01:32:00,50.0,45.0,30.00,WNW,300,5.0,-999.0,82,0.00,,,-99.99,,2013-01-28 09:32:00,
2013-01-28 01:41:00,50.0,45.0,30.00,WNW,300,5.0,-999.0,82,0.00,,,-99.99,,2013-01-28 09:41:00,
2013-01-28 01:51:00,50.0,45.0,30.00,WNW,300,5.0,-999.0,82,0.00,,,-99.99,,2013-01-28 09:51:00,
2013-01-28 02:21:00,49.0,44.0,30.00,NW,310,3.0,-999.0,82,0.00,,,-99.99,,2013-01-28 10:21:00,
2013-01-28 02:31:00,49.0,44.0,30.00,NW,310,3.0,-999.0,82,0.00,,,-99.99,,2013-01-28 10:31:00,
2013-01-28 02:41:00,49.0,44.0,30.00,NW,310,3.0,-999.0,82,0.00,,,-99.99,,2013-01-28 10:41:00,
2013-01-28 02:51:00,49.0,44.0,30.00,NW,310,3.0,-999.0,82,0.00,,,-99.99,,2013-01-28 10:51:00,
2013-01-28 03:22:00,46.0,42.0,30.02,North,0,0.0,-999.0,86,0.00,,,-99.99,,2013-01-28 11:22:00,
2013-01-28 03:32:00,46.0,42.0,30.02,North,0,0.0,-999.0,86,0.00,,,-99.99,,2013-01-28 11:32:00,
2013-01-28 03:42:00,46.0,42.0,30.02,North,0,0.0,-999.0,86,0.00,,,-99.99,,2013-01-28 11:42:00,
2013-01-28 03:52:00,46.0,42.0,30.02,North,0,0.0,-999.0,86,0.00,,,-99.99,,2013-01-28 11:52:00,
2013-01-28 04:23:00,45.0,43.0,30.02,North,0,0.0,-999.0,92,0.00,,,-99.99,,2013-01-28 12:23:00,
2013-01-28 04:32:00,45.0,43.0,30.02,North,0,0.0,-999.0,92,0.00,,,-99.99,,2013-01-28 12:32:00,
2013-01-28 04:42:00,45.0,43.0,30.02,North,0,0.0,-999.0,92,0.00,,,-99.99,,2013-01-28 12:42:00,
2013-01-28 04:52:00,45.0,43.0,30.02,North,0,0.0,-999.0,92,0.00,,,-99.99,,2013-01-28 12:52:00,
2013-01-28 05:22:00,44.0,41.0,30.02,North,0,0.0,-999.0,90,0.00,,,-99.99,,2013-01-28 13:22:00,
2013-01-28 05:33:00,44.0,41.0,30.02,North,0,0.0,-999.0,90,0.00,,,-99.99,,2013-01-28 13:33:00,
2013-01-28 05:42:00,44.0,41.0,30.02,North,0,0.0,-999.0,90,0.00,,,-99.99,,2013-01-28 13:42:00,
2013-01-28 05:52:00,44.0,41.0,30.02,North,0,0.0,-999.0,90,0.00,,,-99.99,,2013-01-28 13:52:00,
2013-01-28 06:22:00,42.0,40.0,30.03,ESE,110,2.0,-999.0,91,0.00,,,-99.99,,2013-01-28 14:22:00,
2013-01-28 06:33:00,42.0,40.0,30.03,ESE,110,2.0,-999.0,91,0.00,,,-99.99,,2013-01-28 14:33:00,
2013-01-28 06:42:00,42.0,40.0,30.03,ESE,110,2.0,-999.0,91,0.00,,,-99.99,,2013-01-28 14:42:00,
2013-01-28 06:52:00,42.0,40.0,30.03,ESE,110,2.0,-999.0,91,0.00,,,-99.99,,2013-01-28 14:52:00,
2013-01-28 07:23:00,42.0,39.0,30.05,East,80,2.0,-999.0,88,0.00,,,-99.99,,2013-01-28 15:23:00,
2013-01-28 07:33:00,42.0,39.0,30.05,East,80,2.0,-999.0,88,0.00,,,-99.99,,2013-01-28 15:33:00,
2013-01-28 07:42:00,42.0,39.0,30.05,East,80,2.0,-999.0,88,0.00,,,-99.99,,2013-01-28 15:42:00,
2013-01-28 07:52:00,42.0,39.0,30.05,East,80,2.0,-999.0,88,0.00,,,-99.99,,2013-01-28 15:52:00,
2013-01-28 08:22:00,44.0,40.0,30.06,East,100,3.0,-999.0,87,0.00,,,-99.99,,2013-01-28 16:22:00,
2013-01-28 08:32:00,44.0,40.0,30.06,East,100,3.0,-999.0,87,0.00,,,-99.99,,2013-01-28 16:32:00,
2013-01-28 08:42:00,44.0,40.0,30.06,East,100,3.0,-999.0,87,0.00,,,-99.99,,2013-01-28 16:42:00,
2013-01-28 08:52:00,44.0,40.0,30.06,East,100,3.0,-999.0,87,0.00,,,-99.99,,2013-01-28 16:52:00,
2013-01-28 09:22:00,49.0,41.0,30.06,North,0,0.0,-999.0,74,0.00,,,-99.99,,2013-01-28 17:22:00,
2013-01-28 09:32:00,49.0,41.0,30.06,North,0,0.0,-999.0,74,0.00,,,-99.99,,2013-01-28 17:32:00,
2013-01-28 09:42:00,49.0,41.0,30.06,North,0,0.0,-999.0,74,0.00,,,-99.99,,2013-01-28 17:42:00,
2013-01-28 09:52:00,49.0,41.0,30.06,North,0,0.0,-999.0,74,0.00,,,-99.99,,2013-01-28 17:52:00,
2013-01-28 10:23:00,51.0,34.0,30.08,West,280,6.0,-999.0,52,0.00,,,-99.99,,2013-01-28 18:23:00,
2013-01-28 10:33:00,51.0,34.0,30.08,West,280,6.0,-999.0,52,0.00,,,-99.99,,2013-01-28 18:33:00,
2013-01-28 10:42:00,51.0,34.0,30.08,West,280,6.0,-999.0,52,0.00,,,-99.99,,2013-01-28 18:42:00,
2013-01-28 10:52:00,51.0,34.0,30.08,West,280,6.0,-999.0,52,0.00,,,-99.99,,2013-01-28 18:52:00,
2013-01-28 11:22:00,53.0,40.0,30.09,WNW,290,2.0,-999.0,61,0.00,,,-99.99,,2013-01-28 19:22:00,
2013-01-28 11:32:00,53.0,40.0,30.09,WNW,290,2.0,-999.0,61,0.00,,,-99.99,,2013-01-28 19:32:00,
2013-01-28 11:42:00,53.0,40.0,30.09,WNW,290,2.0,-999.0,61,0.00,,,-99.99,,2013-01-28 19:42:00,
2013-01-28 11:52:00,53.0,40.0,30.09,WNW,290,2.0,-999.0,61,0.00,,,-99.99,,2013-01-28 19:52:00,
2013-01-28 12:22:00,55.0,35.0,30.08,West,260,7.0,-999.0,46,0.00,,,-99.99,,2013-01-28 20:22:00,
2013-01-28 12:33:00,55.0,35.0,30.08,West,260,7.0,-999.0,46,0.00,,,-99.99,,2013-01-28 20:33:00,
2013-01-28 12:42:00,55.0,35.0,30.08,West,260,7.0,-999.0,46,0.00,,,-99.99,,2013-01-28 20:42:00,
2013-01-28 12:52:00,55.0,35.0,30.08,West,260,7.0,-999.0,46,0.00,,,-99.99,,2013-01-28 20:52:00,
2013-01-28 13:22:00,56.0,33.0,30.07,NNW,340,12.0,-999.0,42,0.00,,,-99.99,,2013-01-28 21:22:00,
2013-01-28 13:33:00,56.0,33.0,30.07,NNW,340,12.0,-999.0,42,0.00,,,-99.99,,2013-01-28 21:33:00,
2013-01-28 13:42:00,56.0,33.0,30.07,NNW,340,12.0,-999.0,42,0.00,,,-99.99,,2013-01-28 21:42:00,
2013-01-28 13:52:00,56.0,33.0,30.07,NNW,340,12.0,-999.0,42,0.00,,,-99.99,,2013-01-28 21:52:00,
2013-01-28 14:22:00,55.0,38.0,30.07,West,280,16.0,-999.0,53,0.00,,,-99.99,,2013-01-28 22:22:00,
2013-01-28 14:32:00,55.0,38.0,30.07,West,280,16.0,-999.0,53,0.00,,,-99.99,,2013-01-28 22:32:00,
2013-01-28 14:42:00,55.0,38.0,30.07,West,280,16.0,-999.0,53,0.00,,,-99.99,,2013-01-28 22:42:00,
2013-01-28 14:52:00,55.0,38.0,30.07,West,280,16.0,-999.0,53,0.00,,,-99.99,,2013-01-28 22:52:00,
2013-01-28 15:22:00,55.0,39.0,30.07,West,270,4.0,-999.0,55,0.00,,,-99.99,,2013-01-28 23:22:00,
2013-01-28 15:32:00,55.0,39.0,30.07,West,270,4.0,-999.0,55,0.00,,,-99.99,,2013-01-28 23:32:00,
2013-01-28 15:42:00,55.0,39.0,30.07,West,270,4.0,-999.0,55,0.00,,,-99.99,,2013-01-28 23:42:00,
2013-01-28 15:52:00,55.0,39.0,30.07,West,270,4.0,-999.0,55,0.00,,,-99.99,,2013-01-28 23:52:00,
2013-01-28 16:22:00,55.0,42.0,30.08,WNW,300,13.0,-999.0,62,0.00,,,-99.99,,2013-01-29 00:22:00,
2013-01-28 16:32:00,55.0,42.0,30.08,WNW,300,13.0,-999.0,62,0.00,,,-99.99,,2013-01-29 00:32:00,
2013-01-28 16:42:00,55.0,42.0,30.08,WNW,300,13.0,-999.0,62,0.00,,,-99.99,,2013-01-29 00:42:00,
2013-01-28 16:52:00,55.0,42.0,30.08,WNW,300,13.0,-999.0,62,0.00,,,-99.99,,2013-01-29 00:52:00,
2013-01-28 17:22:00,54.0,41.0,30.09,WNW,290,7.0,-999.0,61,0.00,,,-99.99,,2013-01-29 01:22:00,
2013-01-28 17:32:00,54.0,41.0,30.09,WNW,290,7.0,-999.0,61,0.00,,,-99.99,,2013-01-29 01:32:00,
2013-01-28 17:42:00,54.0,41.0,30.09,WNW,290,7.0,-999.0,61,0.00,,,-99.99,,2013-01-29 01:42:00,
2013-01-28 17:52:00,54.0,41.0,30.09,WNW,290,7.0,-999.0,61,0.00,,,-99.99,,2013-01-29 01:52:00,
2013-01-28 18:21:00,53.0,39.0,30.10,NNE,20,10.0,-999.0,59,0.00,,,-99.99,,2013-01-29 02:21:00,
2013-01-28 18:32:00,53.0,39.0,30.10,NNE,20,10.0,-999.0,59,0.00,,,-99.99,,2013-01-29 02:32:00,
2013-01-28 18:41:00,53.0,39.0,30.10,NNE,20,10.0,-999.0,59,0.00,,,-99.99,,2013-01-29 02:41:00,
2013-01-28 18:52:00,53.0,39.0,30.10,NNE,20,10.0,-999.0,59,0.00,,,-99.99,,2013-01-29 02:52:00,
2013-01-28 19:21:00,52.0,42.0,30.13,North,0,0.0,-999.0,68,0.00,,,-99.99,,2013-01-29 03:21:00,
2013-01-28 19:32:00,52.0,42.0,30.13,North,0,0.0,-999.0,68,0.00,,,-99.99,,2013-01-29 03:32:00,
2013-01-28 19:42:00,52.0,42.0,30.13,North,0,0.0,-999.0,68,0.00,,,-99.99,,2013-01-29 03:42:00,
2013-01-28 19:52:00,52.0,42.0,30.13,North,0,0.0,-999.0,68,0.00,,,-99.99,,2013-01-29 03:52:00,
2013-01-28 20:21:00,50.0,39.0,30.14,ENE,70,1.0,-999.0,66,0.00,,,-99.99,,2013-01-29 04:21:00,
2013-01-28 20:32:00,50.0,39.0,30.14,ENE,70,1.0,-999.0,66,0.00,,,-99.99,,2013-01-29 04:32:00,
2013-01-28 20:41:00,50.0,39.0,30.14,ENE,70,1.0,-999.0,66,0.00,,,-99.99,,2013-01-29 04:41:00,
2013-01-28 20:51:00,50.0,39.0,30.14,ENE,70,1.0,-999.0,66,0.00,,,-99.99,,2013-01-29 04:51:00,
2013-01-28 21:21:00,47.0,39.0,30.14,East,80,2.0,-999.0,73,0.00,,,-99.99,,2013-01-29 05:21:00,
2013-01-28 21:32:00,47.0,39.0,30.14,East,80,2.0,-999.0,73,0.00,,,-99.99,,2013-01-29 05:32:00,
2013-01-28 21:42:00,47.0,39.0,30.14,East,80,2.0,-999.0,73,0.00,,,-99.99,,2013-01-29 05:42:00,
2013-01-28 21:52:00,47.0,39.0,30.14,East,80,2.0,-999.0,73,0.00,,,-99.99,,2013-01-29 05:52:00,
2013-01-28 22:21:00,44.0,38.0,30.14,ESE,110,3.0,-999.0,80,0.00,,,-99.99,,2013-01-29 06:21:00,
2013-01-28 22:31:00,44.0,38.0,30.14,ESE,110,3.0,-999.0,80,0.00,,,-99.99,,2013-01-29 06:31:00,
2013-01-28 22:41:00,44.0,38.0,30.14,ESE,110,3.0,-999.0,80,0.00,,,-99.99,,2013-01-29 06:41:00,
2013-01-28 22:52:00,44.0,38.0,30.14,ESE,110,3.0,-999.0,80,0.00,,,-99.99,,2013-01-29 06:52:00,
2013-01-28 23:21:00,44.0,37.0,30.15,East,100,1.0,-999.0,77,0.00,,,-99.99,,2013-01-29 07:21:00,
2013-01-28 23:31:00,44.0,37.0,30.15,East,100,1.0,-999.0,77,0.00,,,-99.99,,2013-01-29 07:31:00,
2013-01-28 23:41:00,44.0,37.0,30.15,East,100,1.0,-999.0,77,0.00,,,-99.99,,2013-01-29 07:41:00,
2013-01-28 23:51:00,44.0,37.0,30.15,East,100,1.0,-999.0,77,0.00,,,-99.99,,2013-01-29 07:51:00,